sensor_id;sensor_type;location;lat;lon;timestamp;pressure;altitude;pressure_sealevel;temperature
13497;BMP180;6820;49.374;8.452;2022-10-31T00:01:28;100992.97;;;21.13
13497;BMP180;6820;49.374;8.452;2022-10-31T00:05:30;100999.06;;;21.15
13497;BMP180;6820;49.374;8.452;2022-10-31T00:09:31;101001.69;;;21.17
13497;BMP180;6820;49.374;8.452;2022-10-31T00:13:33;100992.19;;;21.14
13497;BMP180;6820;49.374;8.452;2022-10-31T00:17:35;100997.19;;;21.10
13497;BMP180;6820;49.374;8.452;2022-10-31T00:21:39;100992.72;;;21.05
13497;BMP180;6820;49.374;8.452;2022-10-31T00:25:41;100990.94;;;21.02
13497;BMP180;6820;49.374;8.452;2022-10-31T00:29:43;100989.97;;;20.99
13497;BMP180;6820;49.374;8.452;2022-10-31T00:33:46;101001.94;;;20.97
13497;BMP180;6820;49.374;8.452;2022-10-31T00:37:52;101003.56;;;20.93
13497;BMP180;6820;49.374;8.452;2022-10-31T00:41:53;101009.41;;;20.88
13497;BMP180;6820;49.374;8.452;2022-10-31T00:45:55;101010.09;;;20.82
13497;BMP180;6820;49.374;8.452;2022-10-31T00:49:58;101012.59;;;20.79
13497;BMP180;6820;49.374;8.452;2022-10-31T00:54:00;101010.72;;;20.74
13497;BMP180;6820;49.374;8.452;2022-10-31T00:58:01;101014.09;;;20.73
13497;BMP180;6820;49.374;8.452;2022-10-31T01:02:04;101020.88;;;20.70
13497;BMP180;6820;49.374;8.452;2022-10-31T01:06:08;101018.19;;;20.67
13497;BMP180;6820;49.374;8.452;2022-10-31T01:10:11;101019.03;;;20.66
13497;BMP180;6820;49.374;8.452;2022-10-31T01:14:13;101023.19;;;20.62
13497;BMP180;6820;49.374;8.452;2022-10-31T01:18:14;101015.34;;;20.58
13497;BMP180;6820;49.374;8.452;2022-10-31T01:22:16;101017.03;;;20.57
13497;BMP180;6820;49.374;8.452;2022-10-31T01:26:20;101016.00;;;20.52
13497;BMP180;6820;49.374;8.452;2022-10-31T01:30:22;101021.09;;;20.51
13497;BMP180;6820;49.374;8.452;2022-10-31T01:34:23;101017.56;;;20.47
13497;BMP180;6820;49.374;8.452;2022-10-31T01:38:25;101018.34;;;20.45
13497;BMP180;6820;49.374;8.452;2022-10-31T01:42:26;101019.97;;;20.43
13497;BMP180;6820;49.374;8.452;2022-10-31T01:46:38;101017.31;;;20.40
13497;BMP180;6820;49.374;8.452;2022-10-31T01:50:43;101017.22;;;20.37
13497;BMP180;6820;49.374;8.452;2022-10-31T01:54:48;101007.69;;;20.35
13497;BMP180;6820;49.374;8.452;2022-10-31T01:58:52;101011.03;;;20.32
13497;BMP180;6820;49.374;8.452;2022-10-31T02:02:55;101007.44;;;20.27
13497;BMP180;6820;49.374;8.452;2022-10-31T02:07:08;101000.47;;;20.23
13497;BMP180;6820;49.374;8.452;2022-10-31T02:11:11;101008.97;;;20.21
13497;BMP180;6820;49.374;8.452;2022-10-31T02:15:13;101001.13;;;20.18
13497;BMP180;6820;49.374;8.452;2022-10-31T02:32:41;100992.31;;;20.12
13497;BMP180;6820;49.374;8.452;2022-10-31T02:37:34;100994.13;;;20.14
13497;BMP180;6820;49.374;8.452;2022-10-31T02:45:53;100986.25;;;20.10
13497;BMP180;6820;49.374;8.452;2022-10-31T02:50:03;100986.16;;;20.07
13497;BMP180;6820;49.374;8.452;2022-10-31T02:54:18;100983.53;;;20.05
13497;BMP180;6820;49.374;8.452;2022-10-31T02:58:26;100992.03;;;20.03
13497;BMP180;6820;49.374;8.452;2022-10-31T03:06:49;100997.00;;;19.97
13497;BMP180;6820;49.374;8.452;2022-10-31T03:10:58;101004.09;;;19.79
13497;BMP180;6820;49.374;8.452;2022-10-31T03:15:23;100997.41;;;19.61
13497;BMP180;6820;49.374;8.452;2022-10-31T03:19:29;101003.19;;;19.55
13497;BMP180;6820;49.374;8.452;2022-10-31T03:23:34;100999.84;;;19.56
13497;BMP180;6820;49.374;8.452;2022-10-31T03:27:38;100999.50;;;19.48
13497;BMP180;6820;49.374;8.452;2022-10-31T03:31:49;100996.91;;;19.48
13497;BMP180;6820;49.374;8.452;2022-10-31T03:35:55;101009.19;;;19.54
13497;BMP180;6820;49.374;8.452;2022-10-31T03:40:00;101008.34;;;19.55
13497;BMP180;6820;49.374;8.452;2022-10-31T03:44:08;100999.88;;;19.58
13497;BMP180;6820;49.374;8.452;2022-10-31T03:48:14;101004.69;;;19.49
13497;BMP180;6820;49.374;8.452;2022-10-31T03:52:28;100998.31;;;19.38
13497;BMP180;6820;49.374;8.452;2022-10-31T03:56:37;101007.38;;;19.29
13497;BMP180;6820;49.374;8.452;2022-10-31T04:00:44;100995.56;;;19.34
13497;BMP180;6820;49.374;8.452;2022-10-31T04:04:48;101007.72;;;19.38
13497;BMP180;6820;49.374;8.452;2022-10-31T04:09:00;101002.72;;;19.42
13497;BMP180;6820;49.374;8.452;2022-10-31T04:13:08;101009.28;;;19.34
13497;BMP180;6820;49.374;8.452;2022-10-31T04:17:27;101012.41;;;19.26
13497;BMP180;6820;49.374;8.452;2022-10-31T04:21:31;101005.41;;;19.22
13497;BMP180;6820;49.374;8.452;2022-10-31T04:25:32;101004.53;;;19.22
13497;BMP180;6820;49.374;8.452;2022-10-31T04:29:34;101001.84;;;19.19
13497;BMP180;6820;49.374;8.452;2022-10-31T04:33:36;100991.31;;;19.11
13497;BMP180;6820;49.374;8.452;2022-10-31T04:37:38;101003.78;;;19.02
13497;BMP180;6820;49.374;8.452;2022-10-31T04:41:40;101004.41;;;18.95
13497;BMP180;6820;49.374;8.452;2022-10-31T04:45:47;101000.03;;;18.93
13497;BMP180;6820;49.374;8.452;2022-10-31T04:49:49;101006.31;;;18.79
13497;BMP180;6820;49.374;8.452;2022-10-31T04:53:50;101006.78;;;18.69
13497;BMP180;6820;49.374;8.452;2022-10-31T04:58:15;101010.75;;;18.61
13497;BMP180;6820;49.374;8.452;2022-10-31T05:02:23;101007.06;;;18.55
13497;BMP180;6820;49.374;8.452;2022-10-31T05:06:29;101011.59;;;18.62
13497;BMP180;6820;49.374;8.452;2022-10-31T05:10:31;101012.47;;;18.62
13497;BMP180;6820;49.374;8.452;2022-10-31T05:14:34;101003.59;;;18.55
13497;BMP180;6820;49.374;8.452;2022-10-31T05:18:56;100999.41;;;18.57
13497;BMP180;6820;49.374;8.452;2022-10-31T05:23:16;100989.09;;;18.55
13497;BMP180;6820;49.374;8.452;2022-10-31T05:27:18;100988.16;;;18.53
13497;BMP180;6820;49.374;8.452;2022-10-31T05:31:19;100993.22;;;18.52
13497;BMP180;6820;49.374;8.452;2022-10-31T05:35:26;100999.22;;;18.52
13497;BMP180;6820;49.374;8.452;2022-10-31T05:39:53;100991.28;;;18.46
13497;BMP180;6820;49.374;8.452;2022-10-31T05:43:55;100986.03;;;18.43
13497;BMP180;6820;49.374;8.452;2022-10-31T05:48:02;100986.00;;;18.42
13497;BMP180;6820;49.374;8.452;2022-10-31T05:52:37;100981.66;;;18.41
13497;BMP180;6820;49.374;8.452;2022-10-31T05:56:48;100987.75;;;18.43
13497;BMP180;6820;49.374;8.452;2022-10-31T06:00:52;100984.34;;;18.44
13497;BMP180;6820;49.374;8.452;2022-10-31T06:04:54;100982.41;;;18.38
13497;BMP180;6820;49.374;8.452;2022-10-31T06:08:57;100990.22;;;18.41
13497;BMP180;6820;49.374;8.452;2022-10-31T06:12:59;100993.00;;;18.46
13497;BMP180;6820;49.374;8.452;2022-10-31T06:17:27;100989.66;;;18.48
13497;BMP180;6820;49.374;8.452;2022-10-31T06:21:49;100986.38;;;18.52
13497;BMP180;6820;49.374;8.452;2022-10-31T06:25:51;100982.31;;;18.57
13497;BMP180;6820;49.374;8.452;2022-10-31T06:29:53;100981.66;;;18.62
13497;BMP180;6820;49.374;8.452;2022-10-31T06:34:02;100982.69;;;18.66
13497;BMP180;6820;49.374;8.452;2022-10-31T06:38:03;100990.50;;;18.69
13497;BMP180;6820;49.374;8.452;2022-10-31T06:42:16;100976.16;;;18.74
13497;BMP180;6820;49.374;8.452;2022-10-31T06:46:18;100979.72;;;18.79
13497;BMP180;6820;49.374;8.452;2022-10-31T06:50:35;100985.81;;;18.81
13497;BMP180;6820;49.374;8.452;2022-10-31T06:54:36;100984.88;;;18.79
13497;BMP180;6820;49.374;8.452;2022-10-31T06:58:38;100987.69;;;18.85
13497;BMP180;6820;49.374;8.452;2022-10-31T07:02:42;100991.38;;;18.91
13497;BMP180;6820;49.374;8.452;2022-10-31T07:06:43;100999.28;;;18.95
13497;BMP180;6820;49.374;8.452;2022-10-31T07:10:54;100992.66;;;19.02
13497;BMP180;6820;49.374;8.452;2022-10-31T07:14:58;100995.44;;;19.08
13497;BMP180;6820;49.374;8.452;2022-10-31T07:18:59;100997.34;;;19.13
13497;BMP180;6820;49.374;8.452;2022-10-31T07:23:03;101001.16;;;19.23
13497;BMP180;6820;49.374;8.452;2022-10-31T07:27:07;100995.47;;;19.31
13497;BMP180;6820;49.374;8.452;2022-10-31T07:31:09;100976.88;;;19.38
13497;BMP180;6820;49.374;8.452;2022-10-31T07:35:15;100982.78;;;19.35
13497;BMP180;6820;49.374;8.452;2022-10-31T07:39:21;100995.78;;;19.40
13497;BMP180;6820;49.374;8.452;2022-10-31T07:43:22;100990.06;;;19.48
13497;BMP180;6820;49.374;8.452;2022-10-31T07:47:44;101001.59;;;19.59
13497;BMP180;6820;49.374;8.452;2022-10-31T07:52:08;100994.03;;;19.62
13497;BMP180;6820;49.374;8.452;2022-10-31T07:56:13;100993.38;;;19.69
13497;BMP180;6820;49.374;8.452;2022-10-31T08:00:15;100991.28;;;19.81
13497;BMP180;6820;49.374;8.452;2022-10-31T08:04:16;100984.81;;;19.93
13497;BMP180;6820;49.374;8.452;2022-10-31T08:08:36;100981.78;;;20.04
13497;BMP180;6820;49.374;8.452;2022-10-31T08:12:41;100985.72;;;20.19
13497;BMP180;6820;49.374;8.452;2022-10-31T08:16:42;100975.94;;;20.34
13497;BMP180;6820;49.374;8.452;2022-10-31T08:20:45;100975.59;;;20.51
13497;BMP180;6820;49.374;8.452;2022-10-31T08:24:47;100976.91;;;20.64
13497;BMP180;6820;49.374;8.452;2022-10-31T08:28:48;100979.81;;;20.74
13497;BMP180;6820;49.374;8.452;2022-10-31T08:33:18;100972.19;;;20.78
13497;BMP180;6820;49.374;8.452;2022-10-31T08:37:53;100976.44;;;20.77
13497;BMP180;6820;49.374;8.452;2022-10-31T08:41:58;100966.41;;;20.85
13497;BMP180;6820;49.374;8.452;2022-10-31T08:46:00;100973.19;;;20.83
13497;BMP180;6820;49.374;8.452;2022-10-31T08:50:03;100966.72;;;20.96
13497;BMP180;6820;49.374;8.452;2022-10-31T08:54:04;100964.63;;;21.13
13497;BMP180;6820;49.374;8.452;2022-10-31T08:58:41;100954.53;;;21.21
13497;BMP180;6820;49.374;8.452;2022-10-31T09:02:44;100952.31;;;21.33
13497;BMP180;6820;49.374;8.452;2022-10-31T09:06:47;100952.66;;;21.44
13497;BMP180;6820;49.374;8.452;2022-10-31T09:11:09;100942.69;;;21.58
13497;BMP180;6820;49.374;8.452;2022-10-31T09:15:49;100955.28;;;21.78
13497;BMP180;6820;49.374;8.452;2022-10-31T09:19:57;100946.78;;;21.82
13497;BMP180;6820;49.374;8.452;2022-10-31T09:24:08;100949.41;;;21.83
13497;BMP180;6820;49.374;8.452;2022-10-31T09:28:14;100950.56;;;21.96
13497;BMP180;6820;49.374;8.452;2022-10-31T09:32:17;100947.47;;;22.08
13497;BMP180;6820;49.374;8.452;2022-10-31T09:36:20;100938.25;;;22.18
13497;BMP180;6820;49.374;8.452;2022-10-31T09:40:29;100939.69;;;22.42
13497;BMP180;6820;49.374;8.452;2022-10-31T09:53:44;100936.69;;;22.62
13497;BMP180;6820;49.374;8.452;2022-10-31T09:57:53;100928.56;;;22.82
13497;BMP180;6820;49.374;8.452;2022-10-31T10:01:59;100915.16;;;23.02
13497;BMP180;6820;49.374;8.452;2022-10-31T10:06:15;100912.09;;;23.20
13497;BMP180;6820;49.374;8.452;2022-10-31T10:15:57;100908.25;;;23.45
13497;BMP180;6820;49.374;8.452;2022-10-31T10:20:05;100907.56;;;23.52
13497;BMP180;6820;49.374;8.452;2022-10-31T10:29:08;100899.88;;;23.56
13497;BMP180;6820;49.374;8.452;2022-10-31T10:33:20;100900.75;;;23.57
13497;BMP180;6820;49.374;8.452;2022-10-31T10:37:32;100883.44;;;23.56
13497;BMP180;6820;49.374;8.452;2022-10-31T10:41:38;100886.94;;;23.58
13497;BMP180;6820;49.374;8.452;2022-10-31T10:45:43;100877.41;;;23.55
13497;BMP180;6820;49.374;8.452;2022-10-31T10:50:21;100881.78;;;23.58
13497;BMP180;6820;49.374;8.452;2022-10-31T10:54:33;100869.75;;;23.61
13497;BMP180;6820;49.374;8.452;2022-10-31T10:58:40;100863.06;;;23.74
13497;BMP180;6820;49.374;8.452;2022-10-31T11:02:43;100856.25;;;23.79
13497;BMP180;6820;49.374;8.452;2022-10-31T11:07:07;100848.56;;;23.83
13497;BMP180;6820;49.374;8.452;2022-10-31T11:11:26;100842.59;;;23.88
13497;BMP180;6820;49.374;8.452;2022-10-31T11:15:32;100832.28;;;23.91
13497;BMP180;6820;49.374;8.452;2022-10-31T11:19:35;100825.50;;;23.99
13497;BMP180;6820;49.374;8.452;2022-10-31T11:23:37;100818.72;;;24.07
13497;BMP180;6820;49.374;8.452;2022-10-31T11:27:38;100821.34;;;24.12
13497;BMP180;6820;49.374;8.452;2022-10-31T11:31:40;100816.16;;;24.12
13497;BMP180;6820;49.374;8.452;2022-10-31T11:35:43;100805.94;;;24.19
13497;BMP180;6820;49.374;8.452;2022-10-31T11:39:50;100789.72;;;24.32
13497;BMP180;6820;49.374;8.452;2022-10-31T11:44:03;100783.53;;;24.22
13497;BMP180;6820;49.374;8.452;2022-10-31T11:48:16;100774.94;;;24.25
13497;BMP180;6820;49.374;8.452;2022-10-31T11:52:27;100772.41;;;24.31
13497;BMP180;6820;49.374;8.452;2022-10-31T11:56:42;100763.94;;;24.42
13497;BMP180;6820;49.374;8.452;2022-10-31T12:00:49;100757.09;;;24.48
13497;BMP180;6820;49.374;8.452;2022-10-31T12:05:02;100758.91;;;24.55
13497;BMP180;6820;49.374;8.452;2022-10-31T12:09:24;100757.16;;;24.54
13497;BMP180;6820;49.374;8.452;2022-10-31T12:13:33;100759.72;;;24.50
13497;BMP180;6820;49.374;8.452;2022-10-31T12:21:59;100760.66;;;24.56
13497;BMP180;6820;49.374;8.452;2022-10-31T12:26:16;100752.94;;;24.62
13497;BMP180;6820;49.374;8.452;2022-10-31T12:30:21;100754.66;;;24.62
13497;BMP180;6820;49.374;8.452;2022-10-31T12:42:49;100737.41;;;24.64
13497;BMP180;6820;49.374;8.452;2022-10-31T12:47:04;100711.50;;;24.64
13497;BMP180;6820;49.374;8.452;2022-10-31T12:55:44;100686.56;;;24.77
13497;BMP180;6820;49.374;8.452;2022-10-31T12:59:53;100679.66;;;24.77
13497;BMP180;6820;49.374;8.452;2022-10-31T13:08:40;100639.19;;;24.90
13497;BMP180;6820;49.374;8.452;2022-10-31T13:12:47;100643.56;;;24.99
13497;BMP180;6820;49.374;8.452;2022-10-31T13:16:50;100645.28;;;24.98
13497;BMP180;6820;49.374;8.452;2022-10-31T13:20:53;100653.91;;;24.96
13497;BMP180;6820;49.374;8.452;2022-10-31T13:29:18;100635.75;;;24.96
13497;BMP180;6820;49.374;8.452;2022-10-31T13:33:47;100641.13;;;25.24
13497;BMP180;6820;49.374;8.452;2022-10-31T13:42:31;100641.53;;;25.90
13497;BMP180;6820;49.374;8.452;2022-10-31T13:46:38;100646.78;;;26.08
13497;BMP180;6820;49.374;8.452;2022-10-31T13:50:42;100646.00;;;26.18
13497;BMP180;6820;49.374;8.452;2022-10-31T13:54:46;100642.53;;;26.25
13497;BMP180;6820;49.374;8.452;2022-10-31T13:59:01;100642.47;;;26.10
13497;BMP180;6820;49.374;8.452;2022-10-31T14:03:03;100641.53;;;25.87
13497;BMP180;6820;49.374;8.452;2022-10-31T14:07:14;100641.47;;;25.77
13497;BMP180;6820;49.374;8.452;2022-10-31T14:11:23;100631.06;;;25.70
13497;BMP180;6820;49.374;8.452;2022-10-31T14:15:26;100637.94;;;25.63
13497;BMP180;6820;49.374;8.452;2022-10-31T14:19:29;100624.91;;;25.51
13497;BMP180;6820;49.374;8.452;2022-10-31T14:27:44;100609.91;;;25.08
13497;BMP180;6820;49.374;8.452;2022-10-31T14:32:21;100602.84;;;24.86
13497;BMP180;6820;49.374;8.452;2022-10-31T14:36:34;100606.94;;;24.63
13497;BMP180;6820;49.374;8.452;2022-10-31T14:45:29;100598.91;;;24.35
13497;BMP180;6820;49.374;8.452;2022-10-31T14:49:55;100625.47;;;24.18
13497;BMP180;6820;49.374;8.452;2022-10-31T14:54:02;100619.31;;;24.09
13497;BMP180;6820;49.374;8.452;2022-10-31T14:58:07;100627.06;;;24.09
13497;BMP180;6820;49.374;8.452;2022-10-31T15:02:18;100602.94;;;24.11
13497;BMP180;6820;49.374;8.452;2022-10-31T15:06:22;100600.34;;;24.11
13497;BMP180;6820;49.374;8.452;2022-10-31T15:10:30;100590.88;;;24.13
13497;BMP180;6820;49.374;8.452;2022-10-31T15:14:33;100564.94;;;24.12
13497;BMP180;6820;49.374;8.452;2022-10-31T15:18:34;100577.03;;;24.10
13497;BMP180;6820;49.374;8.452;2022-10-31T15:22:36;100573.56;;;24.09
13497;BMP180;6820;49.374;8.452;2022-10-31T15:26:39;100568.34;;;24.05
13497;BMP180;6820;49.374;8.452;2022-10-31T15:31:01;100541.50;;;23.95
13497;BMP180;6820;49.374;8.452;2022-10-31T15:35:09;100538.81;;;23.88
13497;BMP180;6820;49.374;8.452;2022-10-31T15:39:11;100529.28;;;23.84
13497;BMP180;6820;49.374;8.452;2022-10-31T15:43:15;100511.94;;;23.77
13497;BMP180;6820;49.374;8.452;2022-10-31T15:47:19;100515.34;;;23.72
13497;BMP180;6820;49.374;8.452;2022-10-31T15:51:31;100515.31;;;23.69
13497;BMP180;6820;49.374;8.452;2022-10-31T15:55:38;100504.94;;;23.66
13497;BMP180;6820;49.374;8.452;2022-10-31T15:59:48;100479.88;;;23.59
13497;BMP180;6820;49.374;8.452;2022-10-31T16:04:22;100440.81;;;23.41
13497;BMP180;6820;49.374;8.452;2022-10-31T16:12:35;100472.41;;;23.14
13497;BMP180;6820;49.374;8.452;2022-10-31T16:16:45;100466.28;;;23.09
13497;BMP180;6820;49.374;8.452;2022-10-31T16:20:51;100466.16;;;23.00
13497;BMP180;6820;49.374;8.452;2022-10-31T16:25:15;100480.75;;;22.96
13497;BMP180;6820;49.374;8.452;2022-10-31T16:33:40;100534.94;;;22.89
13497;BMP180;6820;49.374;8.452;2022-10-31T16:37:42;100530.59;;;22.85
13497;BMP180;6820;49.374;8.452;2022-10-31T16:41:46;100498.75;;;22.88
13497;BMP180;6820;49.374;8.452;2022-10-31T16:45:50;100508.22;;;22.87
13497;BMP180;6820;49.374;8.452;2022-10-31T16:49:52;100503.91;;;22.88
13497;BMP180;6820;49.374;8.452;2022-10-31T16:53:53;100496.94;;;22.82
13497;BMP180;6820;49.374;8.452;2022-10-31T16:57:57;100487.44;;;22.81
13497;BMP180;6820;49.374;8.452;2022-10-31T17:01:59;100471.94;;;22.81
13497;BMP180;6820;49.374;8.452;2022-10-31T17:06:02;100439.94;;;22.75
13497;BMP180;6820;49.374;8.452;2022-10-31T17:10:04;100450.97;;;22.61
13497;BMP180;6820;49.374;8.452;2022-10-31T17:14:06;100479.25;;;22.55
13497;BMP180;6820;49.374;8.452;2022-10-31T17:18:11;100451.63;;;22.49
13497;BMP180;6820;49.374;8.452;2022-10-31T17:22:13;100476.59;;;22.47
13497;BMP180;6820;49.374;8.452;2022-10-31T17:26:15;100466.22;;;22.44
13497;BMP180;6820;49.374;8.452;2022-10-31T17:30:18;100440.25;;;22.37
13497;BMP180;6820;49.374;8.452;2022-10-31T17:34:20;100463.44;;;22.32
13497;BMP180;6820;49.374;8.452;2022-10-31T17:38:22;100469.28;;;22.23
13497;BMP180;6820;49.374;8.452;2022-10-31T17:42:24;100468.94;;;22.03
13497;BMP180;6820;49.374;8.452;2022-10-31T17:46:26;100459.22;;;21.89
13497;BMP180;6820;49.374;8.452;2022-10-31T17:50:28;100477.03;;;21.76
13497;BMP180;6820;49.374;8.452;2022-10-31T17:54:30;100510.44;;;21.67
13497;BMP180;6820;49.374;8.452;2022-10-31T17:58:33;100513.56;;;21.53
13497;BMP180;6820;49.374;8.452;2022-10-31T18:02:35;100499.75;;;21.49
13497;BMP180;6820;49.374;8.452;2022-10-31T18:06:37;100506.63;;;21.50
13497;BMP180;6820;49.374;8.452;2022-10-31T18:10:39;100492.13;;;21.55
13497;BMP180;6820;49.374;8.452;2022-10-31T18:14:42;100509.38;;;21.58
13497;BMP180;6820;49.374;8.452;2022-10-31T18:18:53;100517.09;;;21.58
13497;BMP180;6820;49.374;8.452;2022-10-31T18:22:56;100522.22;;;21.55
13497;BMP180;6820;49.374;8.452;2022-10-31T18:26:57;100529.22;;;21.62
13497;BMP180;6820;49.374;8.452;2022-10-31T18:30:59;100518.16;;;21.68
13497;BMP180;6820;49.374;8.452;2022-10-31T18:35:01;100515.63;;;21.70
13497;BMP180;6820;49.374;8.452;2022-10-31T18:39:02;100508.00;;;21.76
13497;BMP180;6820;49.374;8.452;2022-10-31T18:43:04;100498.59;;;21.78
13497;BMP180;6820;49.374;8.452;2022-10-31T18:47:06;100494.28;;;21.78
13497;BMP180;6820;49.374;8.452;2022-10-31T18:51:09;100484.84;;;21.79
13497;BMP180;6820;49.374;8.452;2022-10-31T18:55:11;100498.56;;;21.76
13497;BMP180;6820;49.374;8.452;2022-10-31T18:59:13;100496.00;;;21.78
13497;BMP180;6820;49.374;8.452;2022-10-31T19:03:15;100502.00;;;21.77
13497;BMP180;6820;49.374;8.452;2022-10-31T19:07:16;100508.00;;;21.76
13497;BMP180;6820;49.374;8.452;2022-10-31T19:11:18;100507.03;;;21.71
13497;BMP180;6820;49.374;8.452;2022-10-31T19:15:19;100507.91;;;21.70
13497;BMP180;6820;49.374;8.452;2022-10-31T19:19:21;100476.03;;;21.68
13497;BMP180;6820;49.374;8.452;2022-10-31T19:23:23;100477.66;;;21.63
13497;BMP180;6820;49.374;8.452;2022-10-31T19:27:24;100495.66;;;21.60
13497;BMP180;6820;49.374;8.452;2022-10-31T19:31:28;100484.47;;;21.60
13497;BMP180;6820;49.374;8.452;2022-10-31T19:35:30;100477.50;;;21.56
13497;BMP180;6820;49.374;8.452;2022-10-31T19:39:31;100490.28;;;21.48
13497;BMP180;6820;49.374;8.452;2022-10-31T19:43:33;100502.97;;;21.39
13497;BMP180;6820;49.374;8.452;2022-10-31T19:47:35;100517.38;;;21.32
13497;BMP180;6820;49.374;8.452;2022-10-31T19:51:36;100520.59;;;21.20
13497;BMP180;6820;49.374;8.452;2022-10-31T19:55:39;100511.94;;;21.18
13497;BMP180;6820;49.374;8.452;2022-10-31T19:59:40;100514.56;;;21.20
13497;BMP180;6820;49.374;8.452;2022-10-31T20:03:43;100516.31;;;21.21
13497;BMP180;6820;49.374;8.452;2022-10-31T20:07:45;100514.53;;;21.18
13497;BMP180;6820;49.374;8.452;2022-10-31T20:11:47;100516.06;;;21.09
13497;BMP180;6820;49.374;8.452;2022-10-31T20:15:49;100528.88;;;21.06
13497;BMP180;6820;49.374;8.452;2022-10-31T20:19:51;100534.91;;;21.07
13497;BMP180;6820;49.374;8.452;2022-10-31T20:23:57;100522.03;;;21.07
13497;BMP180;6820;49.374;8.452;2022-10-31T20:27:59;100520.25;;;21.06
13497;BMP180;6820;49.374;8.452;2022-10-31T20:32:00;100517.66;;;21.04
13497;BMP180;6820;49.374;8.452;2022-10-31T20:36:06;100514.13;;;20.99
13497;BMP180;6820;49.374;8.452;2022-10-31T20:40:08;100507.13;;;20.94
13497;BMP180;6820;49.374;8.452;2022-10-31T20:44:10;100510.47;;;20.90
13497;BMP180;6820;49.374;8.452;2022-10-31T20:48:11;100524.13;;;20.86
13497;BMP180;6820;49.374;8.452;2022-10-31T20:52:13;100503.44;;;20.83
13497;BMP180;6820;49.374;8.452;2022-10-31T20:56:18;100510.47;;;20.90
13497;BMP180;6820;49.374;8.452;2022-10-31T21:00:20;100500.25;;;20.93
13497;BMP180;6820;49.374;8.452;2022-10-31T21:04:21;100503.75;;;20.96
13497;BMP180;6820;49.374;8.452;2022-10-31T21:08:24;100497.75;;;20.97
13497;BMP180;6820;49.374;8.452;2022-10-31T21:12:26;100482.22;;;20.94
13497;BMP180;6820;49.374;8.452;2022-10-31T21:16:30;100495.78;;;20.84
13497;BMP180;6820;49.374;8.452;2022-10-31T21:20:32;100487.81;;;20.74
13497;BMP180;6820;49.374;8.452;2022-10-31T21:24:34;100497.94;;;20.67
13497;BMP180;6820;49.374;8.452;2022-10-31T21:28:36;100503.91;;;20.66
13497;BMP180;6820;49.374;8.452;2022-10-31T21:32:37;100507.38;;;20.68
13497;BMP180;6820;49.374;8.452;2022-10-31T21:36:39;100498.06;;;20.73
13497;BMP180;6820;49.374;8.452;2022-10-31T21:40:40;100505.72;;;20.70
13497;BMP180;6820;49.374;8.452;2022-10-31T21:44:48;100504.88;;;20.71
13497;BMP180;6820;49.374;8.452;2022-10-31T21:48:50;100506.75;;;20.77
13497;BMP180;6820;49.374;8.452;2022-10-31T21:52:52;100500.00;;;20.82
13497;BMP180;6820;49.374;8.452;2022-10-31T21:56:55;100486.28;;;20.83
13497;BMP180;6820;49.374;8.452;2022-10-31T22:01:02;100489.59;;;20.78
13497;BMP180;6820;49.374;8.452;2022-10-31T22:05:04;100504.06;;;20.72
13497;BMP180;6820;49.374;8.452;2022-10-31T22:09:07;100501.44;;;20.70
13497;BMP180;6820;49.374;8.452;2022-10-31T22:13:10;100498.00;;;20.70
13497;BMP180;6820;49.374;8.452;2022-10-31T22:17:11;100490.44;;;20.77
13497;BMP180;6820;49.374;8.452;2022-10-31T22:21:15;100486.03;;;20.72
13497;BMP180;6820;49.374;8.452;2022-10-31T22:25:17;100492.78;;;20.67
13497;BMP180;6820;49.374;8.452;2022-10-31T22:29:19;100486.69;;;20.63
13497;BMP180;6820;49.374;8.452;2022-10-31T22:33:21;100481.50;;;20.62
13497;BMP180;6820;49.374;8.452;2022-10-31T22:37:23;100474.56;;;20.58
13497;BMP180;6820;49.374;8.452;2022-10-31T22:41:27;100480.50;;;20.57
13497;BMP180;6820;49.374;8.452;2022-10-31T22:45:28;100483.09;;;20.57
13497;BMP180;6820;49.374;8.452;2022-10-31T22:49:30;100482.28;;;20.58
13497;BMP180;6820;49.374;8.452;2022-10-31T22:53:33;100485.72;;;20.58
13497;BMP180;6820;49.374;8.452;2022-10-31T22:57:35;100473.78;;;20.62
13497;BMP180;6820;49.374;8.452;2022-10-31T23:01:36;100475.47;;;20.61
13497;BMP180;6820;49.374;8.452;2022-10-31T23:05:38;100490.00;;;20.58
13497;BMP180;6820;49.374;8.452;2022-10-31T23:09:40;100482.28;;;20.58
13497;BMP180;6820;49.374;8.452;2022-10-31T23:13:43;100471.06;;;20.57
13497;BMP180;6820;49.374;8.452;2022-10-31T23:18:04;100487.28;;;20.55
13497;BMP180;6820;49.374;8.452;2022-10-31T23:22:19;100480.59;;;20.60
13497;BMP180;6820;49.374;8.452;2022-10-31T23:26:20;100477.16;;;20.59
13497;BMP180;6820;49.374;8.452;2022-10-31T23:30:40;100489.09;;;20.57
13497;BMP180;6820;49.374;8.452;2022-10-31T23:34:44;100492.56;;;20.58
13497;BMP180;6820;49.374;8.452;2022-10-31T23:38:45;100475.41;;;20.58
13497;BMP180;6820;49.374;8.452;2022-10-31T23:42:51;100481.50;;;20.62
13497;BMP180;6820;49.374;8.452;2022-10-31T23:46:52;100478.97;;;20.65
13497;BMP180;6820;49.374;8.452;2022-10-31T23:50:54;100467.03;;;20.68
13497;BMP180;6820;49.374;8.452;2022-10-31T23:54:56;100472.22;;;20.70
13497;BMP180;6820;49.374;8.452;2022-10-31T23:59:00;100460.22;;;20.70
